Terminal Aerodrome Forecast
Issued by NWS

Home | Current Version | Previous Version | Text Only | Print | Product List | Glossary On
Versions: 1 2 3 4 5 6 7 8 9 10 11 12 13 14 15 16 17 18 19 20
000
FTUS41 KBOX 181122
TAFHYA
TAF
KHYA 181122Z 1812/1912 06012KT P6SM BKN025
     FM181800 05009KT P6SM BKN025
     FM182200 07005KT P6SM BKN025
     FM190000 VRB03KT P6SM BKN200=

USA.gov is the U.S. government's official web portal to all federal, state and local government web resources and services.